createdAt,value
2018-07-10T00:01:22.963Z,20.60
2018-07-10T00:03:55.367Z,20.70
2018-07-10T00:06:30.548Z,20.70
2018-07-10T00:09:05.767Z,20.70
2018-07-10T00:11:33.580Z,20.60
2018-07-10T00:14:01.285Z,20.50
2018-07-10T00:19:16.514Z,20.50
2018-07-10T00:21:44.181Z,20.50
2018-07-10T00:24:11.906Z,20.40
2018-07-10T00:26:43.123Z,20.40
2018-07-10T00:29:10.773Z,20.40
2018-07-10T00:31:38.357Z,20.40
2018-07-10T00:37:00.409Z,20.40
2018-07-10T00:39:28.017Z,20.40
2018-07-10T00:41:55.630Z,20.40
2018-07-10T00:44:23.210Z,20.40
2018-07-10T00:46:50.823Z,20.30
2018-07-10T00:49:18.476Z,20.20
2018-07-10T00:51:46.104Z,20.10
2018-07-10T00:54:13.668Z,20.00
2018-07-10T00:56:41.273Z,20.00
2018-07-10T00:59:08.935Z,19.80
2018-07-10T01:01:36.824Z,19.80
2018-07-10T01:04:04.428Z,19.80
2018-07-10T01:06:32.153Z,19.80
2018-07-10T01:11:51.370Z,19.90
2018-07-10T01:14:18.939Z,19.90
2018-07-10T01:16:46.534Z,19.90
2018-07-10T01:19:15.442Z,19.90
2018-07-10T01:21:43.789Z,19.90
2018-07-10T01:24:11.518Z,19.90
2018-07-10T01:26:39.942Z,19.80
2018-07-10T01:29:15.781Z,19.80
2018-07-10T01:31:47.154Z,19.80
2018-07-10T01:34:15.269Z,19.80
2018-07-10T01:36:42.869Z,19.90
2018-07-10T01:39:10.385Z,19.80
2018-07-10T01:41:37.925Z,19.70
2018-07-10T01:44:05.561Z,19.70
2018-07-10T01:46:33.533Z,19.80
2018-07-10T01:49:01.191Z,19.70
2018-07-10T01:51:29.421Z,19.70
2018-07-10T01:53:57.214Z,19.70
2018-07-10T01:56:24.818Z,19.70
2018-07-10T01:58:52.399Z,19.70
2018-07-10T02:01:20.016Z,19.70
2018-07-10T02:03:47.605Z,19.70
2018-07-10T02:06:15.208Z,19.50
2018-07-10T02:08:42.945Z,19.60
2018-07-10T02:11:10.533Z,19.60
2018-07-10T02:13:38.205Z,19.60
2018-07-10T02:16:05.758Z,19.50
2018-07-10T02:18:33.437Z,19.50
2018-07-10T02:21:03.029Z,19.50
2018-07-10T02:23:32.528Z,19.50
2018-07-10T02:26:00.135Z,19.50
2018-07-10T02:28:27.682Z,19.50
2018-07-10T02:30:55.167Z,19.40
2018-07-10T02:33:22.786Z,19.40
2018-07-10T02:35:50.250Z,19.50
2018-07-10T02:38:17.714Z,19.20
2018-07-10T02:40:45.924Z,19.30
2018-07-10T02:43:13.524Z,19.10
2018-07-10T02:45:41.259Z,19.10
2018-07-10T02:48:08.839Z,19.00
2018-07-10T02:50:36.399Z,19.00
2018-07-10T02:53:04.054Z,18.90
2018-07-10T02:55:31.724Z,18.90
2018-07-10T02:57:59.345Z,18.90
2018-07-10T03:00:29.011Z,18.90
2018-07-10T03:02:56.627Z,18.80
2018-07-10T03:05:24.312Z,18.70
2018-07-10T03:07:51.933Z,18.80
2018-07-10T03:10:20.606Z,18.80
2018-07-10T03:12:48.259Z,18.70
2018-07-10T03:15:15.803Z,18.60
2018-07-10T03:17:43.416Z,18.60
2018-07-10T03:20:11.079Z,18.60
2018-07-10T03:22:38.635Z,18.30
2018-07-10T03:25:06.462Z,18.40
2018-07-10T03:27:34.230Z,18.30
2018-07-10T03:30:02.533Z,18.10
2018-07-10T03:32:30.218Z,18.00
2018-07-10T03:34:57.881Z,18.00
2018-07-10T03:37:30.106Z,17.80
2018-07-10T03:39:57.684Z,17.70
2018-07-10T03:42:25.361Z,17.70
2018-07-10T03:44:53.010Z,17.70
2018-07-10T03:47:28.093Z,17.50
2018-07-10T03:49:55.689Z,17.50
2018-07-10T03:52:24.873Z,17.50
2018-07-10T03:54:52.676Z,17.40
2018-07-10T03:57:31.119Z,17.40
2018-07-10T03:59:59.294Z,17.40
2018-07-10T04:02:26.880Z,17.30
2018-07-10T04:04:54.986Z,17.30
2018-07-10T04:07:22.805Z,17.30
2018-07-10T04:09:51.541Z,17.20
2018-07-10T04:12:19.153Z,17.00
2018-07-10T04:14:46.798Z,16.90
2018-07-10T04:17:14.378Z,17.00
2018-07-10T04:19:45.931Z,17.10
2018-07-10T04:22:15.256Z,17.10
2018-07-10T04:24:42.848Z,17.20
2018-07-10T04:27:13.269Z,17.10
2018-07-10T04:29:47.987Z,17.20
2018-07-10T04:32:21.864Z,17.20
2018-07-10T04:37:40.295Z,17.30
2018-07-10T04:40:07.879Z,17.20
2018-07-10T04:42:49.602Z,17.20
2018-07-10T04:45:17.293Z,17.20
2018-07-10T04:48:00.654Z,17.20
2018-07-10T04:50:37.575Z,17.20
2018-07-10T04:53:09.357Z,17.30
2018-07-10T04:55:37.974Z,17.20
2018-07-10T04:58:06.474Z,17.20
2018-07-10T05:00:36.421Z,17.20
2018-07-10T05:03:08.829Z,17.20
2018-07-10T05:05:39.236Z,17.20
2018-07-10T05:08:10.237Z,17.10
2018-07-10T05:13:24.675Z,17.20
2018-07-10T05:15:55.023Z,17.20
2018-07-10T05:18:27.894Z,17.20
2018-07-10T05:20:55.538Z,17.20
2018-07-10T05:23:23.152Z,17.10
2018-07-10T05:25:52.840Z,17.10
2018-07-10T05:28:20.712Z,17.20
2018-07-10T05:30:48.662Z,17.10
2018-07-10T05:33:17.206Z,17.10
2018-07-10T05:35:45.277Z,17.20
2018-07-10T05:38:28.708Z,17.20
2018-07-10T05:40:56.256Z,17.20
2018-07-10T05:43:23.877Z,17.20
2018-07-10T05:45:51.531Z,17.20
2018-07-10T05:48:19.104Z,17.10
2018-07-10T05:50:50.988Z,17.00
2018-07-10T05:53:37.128Z,17.00
2018-07-10T05:56:04.794Z,17.00
2018-07-10T05:58:32.523Z,17.00
2018-07-10T06:01:00.086Z,17.10
2018-07-10T06:03:31.133Z,17.20
2018-07-10T06:05:58.689Z,17.20
2018-07-10T06:08:27.397Z,17.30
2018-07-10T06:10:55.085Z,17.20
2018-07-10T06:13:28.640Z,17.20
2018-07-10T06:15:56.304Z,17.10
2018-07-10T06:18:23.875Z,17.10
2018-07-10T06:20:56.852Z,17.00
2018-07-10T06:23:28.050Z,16.90
2018-07-10T06:25:55.642Z,17.10
2018-07-10T06:28:27.275Z,17.20
2018-07-10T06:30:54.907Z,17.10
2018-07-10T06:33:23.782Z,17.10
2018-07-10T06:35:56.924Z,17.10
2018-07-10T06:38:27.563Z,17.20
2018-07-10T06:40:55.273Z,17.20
2018-07-10T06:43:24.193Z,17.20
2018-07-10T06:45:53.809Z,17.20
2018-07-10T06:48:24.287Z,17.20
2018-07-10T06:50:51.890Z,17.30
2018-07-10T06:53:22.256Z,17.30
2018-07-10T06:55:51.619Z,17.30
2018-07-10T06:58:19.986Z,17.40
2018-07-10T07:00:50.612Z,17.30
2018-07-10T07:03:18.802Z,17.40
2018-07-10T07:05:48.006Z,17.40
2018-07-10T07:08:22.204Z,17.30
2018-07-10T07:10:58.042Z,17.40
2018-07-10T07:13:26.002Z,17.50
2018-07-10T07:15:53.876Z,17.60
2018-07-10T07:18:30.398Z,17.90
2018-07-10T07:20:59.527Z,18.10
2018-07-10T07:23:30.559Z,18.20
2018-07-10T07:25:59.236Z,18.40
2018-07-10T07:31:17.056Z,18.90
2018-07-10T07:33:46.276Z,18.80
2018-07-10T07:36:16.799Z,18.80
2018-07-10T07:38:49.234Z,18.90
2018-07-10T07:41:26.203Z,19.10
2018-07-10T07:43:56.562Z,19.20
2018-07-10T07:46:25.075Z,19.70
2018-07-10T07:48:53.206Z,20.10
2018-07-10T07:51:21.185Z,20.20
2018-07-10T07:53:50.368Z,20.20
2018-07-10T07:56:18.090Z,20.60
2018-07-10T07:58:48.141Z,21.00
2018-07-10T08:01:16.031Z,21.20
2018-07-10T08:03:48.646Z,21.20
2018-07-10T08:06:16.926Z,21.00
2018-07-10T08:08:47.939Z,20.80
2018-07-10T08:11:20.433Z,20.60
2018-07-10T08:16:35.587Z,21.20
2018-07-10T08:19:03.451Z,21.60
2018-07-10T08:21:31.215Z,21.90
2018-07-10T08:23:59.001Z,22.30
2018-07-10T08:29:17.290Z,22.50
2018-07-10T09:06:44.108Z,20.60
2018-07-10T09:09:20.158Z,20.80
2018-07-10T09:11:49.409Z,21.10
2018-07-10T09:14:28.387Z,21.50
2018-07-10T09:17:23.372Z,22.00
2018-07-10T09:19:51.514Z,22.50
2018-07-10T09:22:22.696Z,22.90
2018-07-10T09:24:53.791Z,23.00
2018-07-10T09:27:23.066Z,22.80
2018-07-10T09:29:51.029Z,22.40
2018-07-10T09:32:24.170Z,22.50
2018-07-10T09:35:01.875Z,22.50
2018-07-10T09:37:54.227Z,22.70
2018-07-10T09:40:42.272Z,22.90
2018-07-10T09:43:10.718Z,23.00
2018-07-10T09:45:46.164Z,23.20
2018-07-10T09:48:18.022Z,22.90
2018-07-10T10:03:43.251Z,22.30
2018-07-10T10:11:52.393Z,21.70
2018-07-10T10:14:26.454Z,21.60
2018-07-10T10:16:54.574Z,21.50
2018-07-10T10:19:25.125Z,21.30
2018-07-10T10:21:57.446Z,21.30
2018-07-10T10:24:44.894Z,21.30
2018-07-10T10:27:18.754Z,21.30
2018-07-10T10:29:46.547Z,21.40
2018-07-10T10:32:20.641Z,21.40
2018-07-10T10:43:52.903Z,21.70
2018-07-10T10:46:21.494Z,21.80
2018-07-10T10:48:50.929Z,21.70
2018-07-10T10:54:05.554Z,21.50
2018-07-10T10:57:06.453Z,21.40
2018-07-10T10:59:42.536Z,21.40
2018-07-10T11:02:21.011Z,21.40
2018-07-10T11:05:05.288Z,21.50
2018-07-10T11:07:34.951Z,21.60
2018-07-10T11:10:05.159Z,21.60
2018-07-10T11:12:38.409Z,21.90
2018-07-10T11:20:48.664Z,22.90
2018-07-10T11:23:24.455Z,23.00
2018-07-10T11:25:52.180Z,23.00
2018-07-10T11:29:27.238Z,22.80
2018-07-10T11:31:56.498Z,22.90
2018-07-10T11:34:31.648Z,23.20
2018-07-10T16:09:16.362Z,17.30
2018-07-10T16:11:44.096Z,17.10
2018-07-10T16:14:17.884Z,17.10
2018-07-10T16:16:46.066Z,17.00
2018-07-10T16:19:21.340Z,17.00
2018-07-10T16:22:00.726Z,17.00
2018-07-10T16:24:31.086Z,17.00
2018-07-10T16:26:58.870Z,17.10
2018-07-10T16:29:26.547Z,17.10
2018-07-10T16:32:11.472Z,17.10
2018-07-10T16:34:56.531Z,17.10
2018-07-10T16:37:35.283Z,17.00
2018-07-10T16:40:03.726Z,17.10
2018-07-10T16:42:36.753Z,17.10
2018-07-10T16:45:04.531Z,17.20
2018-07-10T16:49:40.022Z,17.00
2018-07-10T16:52:10.842Z,17.00
2018-07-10T16:54:38.595Z,17.00
2018-07-10T16:57:06.337Z,17.10
2018-07-10T16:59:34.332Z,17.10
2018-07-10T17:02:01.982Z,17.20
2018-07-10T17:04:29.812Z,17.20
2018-07-10T17:07:06.892Z,17.30
2018-07-10T17:09:34.741Z,17.20
2018-07-10T17:12:14.987Z,17.10
2018-07-10T17:14:59.761Z,17.10
2018-07-10T17:17:27.531Z,17.10
2018-07-10T17:19:55.756Z,17.10
2018-07-10T17:22:24.069Z,17.10
2018-07-10T17:24:52.265Z,17.00
2018-07-10T17:27:23.163Z,17.10
2018-07-10T17:30:00.832Z,17.10
2018-07-10T17:32:32.082Z,17.00
2018-07-10T17:35:00.871Z,17.00
2018-07-10T17:37:29.075Z,17.00
2018-07-10T17:40:02.019Z,17.00
2018-07-10T17:50:42.048Z,16.90
2018-07-10T17:56:07.241Z,16.80
2018-07-10T17:58:35.056Z,16.90
2018-07-10T21:38:09.933Z,15.70
2018-07-10T21:40:43.063Z,15.70
2018-07-10T21:43:15.049Z,15.60
2018-07-10T23:45:53.850Z,15.00
2018-07-10T23:48:21.578Z,14.90
2018-07-10T23:50:56.805Z,14.80
2018-07-10T23:53:30.149Z,14.70
2018-07-10T23:55:59.039Z,14.60
2018-07-10T23:58:31.542Z,14.60
